PAPH Airport Information

Runway Information
Runway 05 Length 5000 ft width 100 ft
Elevation 90 ft Threshold 0 ft Heading 70
Runway 23 Length 5000 ft Width 100 ft
Elevation 95 ft Threshold 0 ft Heading 250
Runway 13 Length 4000 ft width 100 ft
Elevation 76 ft Threshold 0 ft Heading 147
Runway 31 Length 4000 ft Width 100 ft
Elevation 83 ft Threshold 0 ft Heading 327
Airport Frequencies
Type AWOS Name AWOS 3 Frequency 135.4 MHZ
Type CNTR Name ANCHORAGE Frequency 132.9 MHZ
Type CTAF Name CTAF Frequency 122.8 MHZ
Type FSS Name KENAI RDO Frequency 122 MHZ
Airport Navaids
Airport Weather Information & NOTAM
ADDS - METARS form results

(2329 UTC 20 March 2019)
Data provider http://aviationweather.gov/metar/data/
 
METAR text: PAPH 202325Z AUTO 02007KT 4SM -SN BR SCT007 OVC015 01/M01 A2916 RMK AO2 P0000 FZRANO
Conditions at: PAPH (PORT HEIDEN , AK, US) observed 2325 UTC 20 March 2019
Temperature: 1.0°C (34°F)
Dewpoint: -1.0°C (30°F) [RH = 86%]
Pressure (altimeter): 29.16 inches Hg (987.6 mb)
Winds: from the NNE (20 degrees) at 8 MPH (7 knots; 3.6 m/s)
Visibility: 4 miles ( 6 km)
Ceiling: 1500 feet AGL
Clouds: scattered clouds at 700 feet AGL
overcast cloud deck at 1500 feet AGL
Weather: -SN BR  (light snow, mist)

METAR text: PAPH 202304Z AUTO 03006KT 8SM -SN SCT005 BKN012 BKN030 01/M01 A2917 RMK AO2 P0000 FZRANO
Conditions at: PAPH (PORT HEIDEN , AK, US) observed 2304 UTC 20 March 2019
Temperature: 1.0°C (34°F)
Dewpoint: -1.0°C (30°F) [RH = 86%]
Pressure (altimeter): 29.17 inches Hg (987.9 mb)
Winds: from the NNE (30 degrees) at 7 MPH (6 knots; 3.1 m/s)
Visibility: 8 miles (13 km)
Ceiling: 1200 feet AGL
Clouds: scattered clouds at 500 feet AGL
broken clouds at 1200 feet AGL
broken clouds at 3000 feet AGL
Weather: -SN  (light snow)

METAR text: PAPH 202256Z AUTO 03006KT 9SM -SN FEW012 SCT030 SCT036 01/M01 A2917 RMK AO2 SLP881 P0000 T00061011 FZRANO
Conditions at: PAPH (PORT HEIDEN , AK, US) observed 2256 UTC 20 March 2019
Temperature: 0.6°C (33°F)
Dewpoint: -1.1°C (30°F) [RH = 88%]
Pressure (altimeter): 29.17 inches Hg (987.9 mb)
[Sea-level pressure:  988.1 mb]
Winds: from the NNE (30 degrees) at 7 MPH (6 knots; 3.1 m/s)
Visibility: 9 miles (14 km)
Ceiling: at least 12,000 feet AGL
Clouds: few clouds at 1200 feet AGL
scattered clouds at 3000 feet AGL
scattered clouds at 3600 feet AGL
Weather: -SN  (light snow)